sensor_id;sensor_type;location;lat;lon;timestamp;pressure;altitude;pressure_sealevel;temperature;humidity
6094;BME280;19964;42.060;24.700;2023-04-19T00:00:07;97093.69;;;10.08;100.00
6094;BME280;19964;42.060;24.700;2023-04-19T00:02:34;97093.81;;;10.01;100.00
6094;BME280;19964;42.060;24.700;2023-04-19T00:05:03;97087.28;;;10.10;100.00
6094;BME280;19964;42.060;24.700;2023-04-19T00:07:30;97083.66;;;10.11;100.00
6094;BME280;19964;42.060;24.700;2023-04-19T00:09:57;97082.34;;;9.97;100.00
6094;BME280;19964;42.060;24.700;2023-04-19T00:12:24;97071.25;;;9.85;100.00
6094;BME280;19964;42.060;24.700;2023-04-19T00:14:51;97049.03;;;9.72;100.00
6094;BME280;19964;42.060;24.700;2023-04-19T00:17:18;97065.47;;;9.66;100.00
6094;BME280;19964;42.060;24.700;2023-04-19T00:19:45;97063.34;;;9.63;100.00
6094;BME280;19964;42.060;24.700;2023-04-19T00:22:14;97048.31;;;9.37;100.00
6094;BME280;19964;42.060;24.700;2023-04-19T00:24:41;97043.41;;;9.36;100.00
6094;BME280;19964;42.060;24.700;2023-04-19T00:27:08;97057.09;;;9.48;100.00
6094;BME280;19964;42.060;24.700;2023-04-19T00:29:35;97051.44;;;9.51;100.00
6094;BME280;19964;42.060;24.700;2023-04-19T00:32:02;97051.78;;;9.54;100.00
6094;BME280;19964;42.060;24.700;2023-04-19T00:34:30;97047.94;;;9.57;100.00
6094;BME280;19964;42.060;24.700;2023-04-19T00:36:57;97045.00;;;9.65;100.00
6094;BME280;19964;42.060;24.700;2023-04-19T00:39:25;97045.25;;;9.63;100.00
6094;BME280;19964;42.060;24.700;2023-04-19T00:41:52;97038.47;;;9.62;100.00
6094;BME280;19964;42.060;24.700;2023-04-19T00:44:21;97037.94;;;9.60;100.00
6094;BME280;19964;42.060;24.700;2023-04-19T00:46:48;97048.91;;;9.67;100.00
6094;BME280;19964;42.060;24.700;2023-04-19T00:49:16;97038.72;;;9.61;100.00
6094;BME280;19964;42.060;24.700;2023-04-19T00:51:43;97038.72;;;9.61;100.00
6094;BME280;19964;42.060;24.700;2023-04-19T00:54:11;97047.47;;;9.60;100.00
6094;BME280;19964;42.060;24.700;2023-04-19T00:56:40;97042.97;;;9.67;100.00
6094;BME280;19964;42.060;24.700;2023-04-19T00:59:07;97038.56;;;9.67;100.00
6094;BME280;19964;42.060;24.700;2023-04-19T01:01:35;97038.56;;;9.67;100.00
6094;BME280;19964;42.060;24.700;2023-04-19T01:04:02;97025.03;;;9.49;100.00
6094;BME280;19964;42.060;24.700;2023-04-19T01:06:31;97035.91;;;9.62;100.00
6094;BME280;19964;42.060;24.700;2023-04-19T01:08:58;97032.88;;;9.65;100.00
6094;BME280;19964;42.060;24.700;2023-04-19T01:11:25;97032.00;;;9.48;100.00
6094;BME280;19964;42.060;24.700;2023-04-19T01:13:54;97004.97;;;9.28;100.00
6094;BME280;19964;42.060;24.700;2023-04-19T01:16:23;97022.19;;;9.22;100.00
6094;BME280;19964;42.060;24.700;2023-04-19T01:18:51;97026.66;;;9.27;100.00
6094;BME280;19964;42.060;24.700;2023-04-19T01:21:19;97016.44;;;9.20;100.00
6094;BME280;19964;42.060;24.700;2023-04-19T01:23:48;97022.50;;;9.26;100.00
6094;BME280;19964;42.060;24.700;2023-04-19T01:26:15;97026.44;;;9.28;100.00
6094;BME280;19964;42.060;24.700;2023-04-19T01:28:42;97015.44;;;9.21;100.00
6094;BME280;19964;42.060;24.700;2023-04-19T01:31:10;97009.91;;;9.29;100.00
6094;BME280;19964;42.060;24.700;2023-04-19T01:33:37;97013.41;;;9.23;100.00
6094;BME280;19964;42.060;24.700;2023-04-19T01:36:04;97008.13;;;9.18;100.00
6094;BME280;19964;42.060;24.700;2023-04-19T01:38:31;97012.59;;;9.23;100.00
6094;BME280;19964;42.060;24.700;2023-04-19T01:41:00;97007.91;;;9.20;100.00
6094;BME280;19964;42.060;24.700;2023-04-19T01:43:27;96987.69;;;9.17;100.00
6094;BME280;19964;42.060;24.700;2023-04-19T01:45:54;97004.41;;;9.26;100.00
6094;BME280;19964;42.060;24.700;2023-04-19T01:48:21;97008.00;;;9.25;100.00
6094;BME280;19964;42.060;24.700;2023-04-19T01:50:48;97006.88;;;9.21;100.00
6094;BME280;19964;42.060;24.700;2023-04-19T01:53:15;97006.69;;;9.22;100.00
6094;BME280;19964;42.060;24.700;2023-04-19T01:55:42;97008.13;;;9.18;100.00
6094;BME280;19964;42.060;24.700;2023-04-19T01:58:11;96996.78;;;9.19;100.00
6094;BME280;19964;42.060;24.700;2023-04-19T02:00:38;96980.38;;;9.14;100.00
6094;BME280;19964;42.060;24.700;2023-04-19T02:03:05;96997.25;;;9.16;100.00
6094;BME280;19964;42.060;24.700;2023-04-19T02:05:32;96999.69;;;9.23;100.00
6094;BME280;19964;42.060;24.700;2023-04-19T02:07:59;97000.38;;;9.18;100.00
6094;BME280;19964;42.060;24.700;2023-04-19T02:10:26;96997.00;;;9.18;100.00
6094;BME280;19964;42.060;24.700;2023-04-19T02:12:53;96989.81;;;9.20;100.00
6094;BME280;19964;42.060;24.700;2023-04-19T02:15:22;96992.41;;;9.20;100.00
6094;BME280;19964;42.060;24.700;2023-04-19T02:17:49;96992.88;;;9.17;100.00
6094;BME280;19964;42.060;24.700;2023-04-19T02:20:16;96989.03;;;9.19;100.00
6094;BME280;19964;42.060;24.700;2023-04-19T02:22:43;96987.88;;;9.27;100.00
6094;BME280;19964;42.060;24.700;2023-04-19T02:25:12;96988.13;;;9.25;100.00
6094;BME280;19964;42.060;24.700;2023-04-19T02:27:40;96984.88;;;9.18;100.00
6094;BME280;19964;42.060;24.700;2023-04-19T02:30:07;96984.00;;;9.13;100.00
6094;BME280;19964;42.060;24.700;2023-04-19T02:32:36;96978.84;;;9.13;100.00
6094;BME280;19964;42.060;24.700;2023-04-19T02:35:03;96979.16;;;9.16;100.00
6094;BME280;19964;42.060;24.700;2023-04-19T02:37:31;96977.00;;;9.13;100.00
6094;BME280;19964;42.060;24.700;2023-04-19T02:39:57;96976.56;;;9.16;100.00
6094;BME280;19964;42.060;24.700;2023-04-19T02:42:24;96977.00;;;9.13;100.00
6094;BME280;19964;42.060;24.700;2023-04-19T02:44:51;96973.28;;;9.21;100.00
6094;BME280;19964;42.060;24.700;2023-04-19T02:47:18;96976.91;;;9.20;100.00
6094;BME280;19964;42.060;24.700;2023-04-19T02:49:47;96959.16;;;9.12;100.00
6094;BME280;19964;42.060;24.700;2023-04-19T02:52:14;96976.97;;;9.25;100.00
6094;BME280;19964;42.060;24.700;2023-04-19T02:54:41;96984.28;;;9.28;100.00
6094;BME280;19964;42.060;24.700;2023-04-19T02:57:11;96987.75;;;9.33;100.00
6094;BME280;19964;42.060;24.700;2023-04-19T02:59:38;96963.94;;;9.31;100.00
6094;BME280;19964;42.060;24.700;2023-04-19T03:02:05;96983.72;;;9.37;100.00
6094;BME280;19964;42.060;24.700;2023-04-19T03:04:32;96987.28;;;9.36;100.00
6094;BME280;19964;42.060;24.700;2023-04-19T03:07:00;96991.47;;;9.37;100.00
6094;BME280;19964;42.060;24.700;2023-04-19T03:09:27;96972.84;;;9.24;100.00
6094;BME280;19964;42.060;24.700;2023-04-19T03:11:55;96982.50;;;9.28;100.00
6094;BME280;19964;42.060;24.700;2023-04-19T03:14:22;96978.78;;;9.36;100.00
6094;BME280;19964;42.060;24.700;2023-04-19T03:16:49;96963.88;;;9.15;100.00
6094;BME280;19964;42.060;24.700;2023-04-19T03:19:16;96982.72;;;9.27;100.00
6094;BME280;19964;42.060;24.700;2023-04-19T03:21:43;96984.84;;;9.30;100.00
6094;BME280;19964;42.060;24.700;2023-04-19T03:24:11;96972.84;;;9.24;100.00
6094;BME280;19964;42.060;24.700;2023-04-19T03:26:38;96985.19;;;9.33;100.00
6094;BME280;19964;42.060;24.700;2023-04-19T03:29:05;96963.06;;;9.26;100.00
6094;BME280;19964;42.060;24.700;2023-04-19T03:31:32;96975.06;;;9.32;100.00
6094;BME280;19964;42.060;24.700;2023-04-19T03:33:59;96990.53;;;9.43;100.00
6094;BME280;19964;42.060;24.700;2023-04-19T03:36:26;96986.06;;;9.39;100.00
6094;BME280;19964;42.060;24.700;2023-04-19T03:38:53;96975.31;;;9.30;100.00
6094;BME280;19964;42.060;24.700;2023-04-19T03:41:24;96923.59;;;8.90;100.00
6094;BME280;19964;42.060;24.700;2023-04-19T03:43:51;97012.03;;;9.44;100.00
6094;BME280;19964;42.060;24.700;2023-04-19T03:46:18;96990.00;;;9.41;100.00
6094;BME280;19964;42.060;24.700;2023-04-19T03:48:46;96981.03;;;9.32;100.00
6094;BME280;19964;42.060;24.700;2023-04-19T03:51:13;96997.19;;;9.39;100.00
6094;BME280;19964;42.060;24.700;2023-04-19T03:53:40;96986.53;;;9.36;100.00
6094;BME280;19964;42.060;24.700;2023-04-19T03:56:07;97003.44;;;9.55;100.00
6094;BME280;19964;42.060;24.700;2023-04-19T03:58:36;96980.06;;;9.50;100.00
6094;BME280;19964;42.060;24.700;2023-04-19T04:01:03;96996.47;;;9.55;100.00
6094;BME280;19964;42.060;24.700;2023-04-19T04:03:31;97000.72;;;9.61;100.00
6094;BME280;19964;42.060;24.700;2023-04-19T04:05:58;97003.31;;;9.61;100.00
6094;BME280;19964;42.060;24.700;2023-04-19T04:08:25;97004.41;;;9.65;100.00
6094;BME280;19964;42.060;24.700;2023-04-19T04:10:53;96994.53;;;9.62;100.00
6094;BME280;19964;42.060;24.700;2023-04-19T04:13:19;97003.41;;;9.66;100.00
6094;BME280;19964;42.060;24.700;2023-04-19T04:15:48;97005.75;;;9.68;100.00
6094;BME280;19964;42.060;24.700;2023-04-19T04:18:15;97002.25;;;9.74;100.00
6094;BME280;19964;42.060;24.700;2023-04-19T04:20:42;97006.72;;;9.78;100.00
6094;BME280;19964;42.060;24.700;2023-04-19T04:23:09;96928.56;;;9.32;100.00
6094;BME280;19964;42.060;24.700;2023-04-19T04:25:36;97005.47;;;9.81;100.00
6094;BME280;19964;42.060;24.700;2023-04-19T04:28:03;97005.81;;;9.84;100.00
6094;BME280;19964;42.060;24.700;2023-04-19T04:30:31;97013.19;;;9.93;100.00
6094;BME280;19964;42.060;24.700;2023-04-19T04:32:59;97011.47;;;9.98;100.00
6094;BME280;19964;42.060;24.700;2023-04-19T04:35:26;97010.19;;;10.01;100.00
6094;BME280;19964;42.060;24.700;2023-04-19T04:37:54;97010.44;;;9.99;100.00
6094;BME280;19964;42.060;24.700;2023-04-19T04:40:21;97017.84;;;10.07;100.00
6094;BME280;19964;42.060;24.700;2023-04-19T04:42:48;97019.16;;;10.21;100.00
6094;BME280;19964;42.060;24.700;2023-04-19T04:45:17;97020.63;;;10.34;100.00
6094;BME280;19964;42.060;24.700;2023-04-19T04:47:44;97017.91;;;10.40;100.00
6094;BME280;19964;42.060;24.700;2023-04-19T04:50:13;96997.88;;;10.19;100.00
6094;BME280;19964;42.060;24.700;2023-04-19T04:52:40;97000.16;;;10.16;100.00
6094;BME280;19964;42.060;24.700;2023-04-19T04:55:07;97009.78;;;10.20;100.00
6094;BME280;19964;42.060;24.700;2023-04-19T04:57:34;97003.19;;;10.13;100.00
6094;BME280;19964;42.060;24.700;2023-04-19T05:00:01;97015.88;;;10.26;100.00
6094;BME280;19964;42.060;24.700;2023-04-19T05:02:29;97022.75;;;10.37;100.00
6094;BME280;19964;42.060;24.700;2023-04-19T05:04:56;97032.19;;;10.43;100.00
6094;BME280;19964;42.060;24.700;2023-04-19T05:07:24;97021.28;;;10.41;100.00
6094;BME280;19964;42.060;24.700;2023-04-19T05:09:51;97012.78;;;10.29;100.00
6094;BME280;19964;42.060;24.700;2023-04-19T05:12:18;97028.88;;;10.47;100.00
6094;BME280;19964;42.060;24.700;2023-04-19T05:14:45;97031.72;;;10.46;100.00
6094;BME280;19964;42.060;24.700;2023-04-19T05:17:12;97032.25;;;10.48;100.00
6094;BME280;19964;42.060;24.700;2023-04-19T05:19:39;97028.50;;;10.55;100.00
6094;BME280;19964;42.060;24.700;2023-04-19T05:22:06;97020.72;;;10.55;100.00
6094;BME280;19964;42.060;24.700;2023-04-19T05:24:35;97025.19;;;10.60;100.00
6094;BME280;19964;42.060;24.700;2023-04-19T05:27:02;97038.16;;;10.60;100.00
6094;BME280;19964;42.060;24.700;2023-04-19T05:29:29;97019.63;;;10.51;100.00
6094;BME280;19964;42.060;24.700;2023-04-19T05:31:57;97023.19;;;10.45;100.00
6094;BME280;19964;42.060;24.700;2023-04-19T05:34:24;97042.84;;;10.63;100.00
6094;BME280;19964;42.060;24.700;2023-04-19T05:36:51;97041.78;;;10.59;100.00
6094;BME280;19964;42.060;24.700;2023-04-19T05:39:18;97038.22;;;10.65;100.00
6094;BME280;19964;42.060;24.700;2023-04-19T05:41:46;97023.09;;;10.57;100.00
6094;BME280;19964;42.060;24.700;2023-04-19T05:44:13;97040.81;;;10.65;100.00
6094;BME280;19964;42.060;24.700;2023-04-19T05:46:40;97038.94;;;10.77;100.00
6094;BME280;19964;42.060;24.700;2023-04-19T05:49:07;97049.94;;;10.84;100.00
6094;BME280;19964;42.060;24.700;2023-04-19T05:51:34;97049.38;;;10.82;100.00
6094;BME280;19964;42.060;24.700;2023-04-19T05:54:01;97044.50;;;10.86;100.00
6094;BME280;19964;42.060;24.700;2023-04-19T05:56:28;97045.84;;;10.88;100.00
6094;BME280;19964;42.060;24.700;2023-04-19T05:58:57;97038.22;;;10.82;100.00
6094;BME280;19964;42.060;24.700;2023-04-19T06:01:25;97041.50;;;10.94;100.00
6094;BME280;19964;42.060;24.700;2023-04-19T06:03:52;97038.28;;;11.03;100.00
6094;BME280;19964;42.060;24.700;2023-04-19T06:06:20;97042.13;;;11.01;100.00
6094;BME280;19964;42.060;24.700;2023-04-19T06:08:48;97037.44;;;10.98;100.00
6094;BME280;19964;42.060;24.700;2023-04-19T06:11:15;97047.44;;;11.11;100.00
6094;BME280;19964;42.060;24.700;2023-04-19T06:13:42;97050.09;;;11.16;100.00
6094;BME280;19964;42.060;24.700;2023-04-19T06:16:10;97044.50;;;11.24;100.00
6094;BME280;19964;42.060;24.700;2023-04-19T06:18:37;97056.81;;;11.33;100.00
6094;BME280;19964;42.060;24.700;2023-04-19T06:21:05;97053.25;;;11.39;100.00
6094;BME280;19964;42.060;24.700;2023-04-19T06:23:32;97064.69;;;11.60;100.00
6094;BME280;19964;42.060;24.700;2023-04-19T06:25:59;97063.25;;;11.69;100.00
6094;BME280;19964;42.060;24.700;2023-04-19T06:28:26;96981.81;;;11.27;100.00
6094;BME280;19964;42.060;24.700;2023-04-19T06:30:53;97053.69;;;11.96;100.00
6094;BME280;19964;42.060;24.700;2023-04-19T06:33:21;97048.38;;;12.08;100.00
6094;BME280;19964;42.060;24.700;2023-04-19T06:35:48;97051.59;;;12.20;100.00
6094;BME280;19964;42.060;24.700;2023-04-19T06:38:16;97058.31;;;12.16;100.00
6094;BME280;19964;42.060;24.700;2023-04-19T06:40:43;97055.84;;;12.31;100.00
6094;BME280;19964;42.060;24.700;2023-04-19T06:43:10;97053.88;;;12.43;100.00
6094;BME280;19964;42.060;24.700;2023-04-19T06:45:37;97050.94;;;12.61;100.00
6094;BME280;19964;42.060;24.700;2023-04-19T06:48:04;97053.88;;;12.75;99.74
6094;BME280;19964;42.060;24.700;2023-04-19T06:50:32;97054.09;;;13.05;99.94
6094;BME280;19964;42.060;24.700;2023-04-19T06:52:59;96991.03;;;12.83;95.52
6094;BME280;19964;42.060;24.700;2023-04-19T06:55:26;97062.97;;;13.56;93.68
6094;BME280;19964;42.060;24.700;2023-04-19T06:57:53;97052.16;;;13.79;95.00
6094;BME280;19964;42.060;24.700;2023-04-19T07:00:21;97057.84;;;13.76;93.74
6094;BME280;19964;42.060;24.700;2023-04-19T07:02:48;97062.66;;;14.14;92.20
6094;BME280;19964;42.060;24.700;2023-04-19T07:05:17;97069.78;;;14.79;90.09
6094;BME280;19964;42.060;24.700;2023-04-19T07:07:45;97061.63;;;15.15;83.67
6094;BME280;19964;42.060;24.700;2023-04-19T07:10:12;97039.94;;;15.35;84.86
6094;BME280;19964;42.060;24.700;2023-04-19T07:12:39;97062.66;;;15.35;80.90
6094;BME280;19964;42.060;24.700;2023-04-19T07:15:07;97059.47;;;15.53;79.96
6094;BME280;19964;42.060;24.700;2023-04-19T07:17:35;97055.31;;;15.52;77.90
6094;BME280;19964;42.060;24.700;2023-04-19T07:20:02;97057.66;;;15.53;77.29
6094;BME280;19964;42.060;24.700;2023-04-19T07:22:31;97060.56;;;15.37;77.39
6094;BME280;19964;42.060;24.700;2023-04-19T07:24:59;97049.34;;;15.36;78.34
6094;BME280;19964;42.060;24.700;2023-04-19T07:27:26;97056.72;;;15.09;78.08
6094;BME280;19964;42.060;24.700;2023-04-19T07:29:53;97050.97;;;15.02;79.72
6094;BME280;19964;42.060;24.700;2023-04-19T07:32:20;97063.19;;;15.37;78.46
6094;BME280;19964;42.060;24.700;2023-04-19T07:34:47;97060.41;;;15.87;77.16
6094;BME280;19964;42.060;24.700;2023-04-19T07:37:16;97065.38;;;16.32;75.31
6094;BME280;19964;42.060;24.700;2023-04-19T07:39:44;97062.59;;;17.20;76.85
6094;BME280;19964;42.060;24.700;2023-04-19T07:42:12;97065.69;;;16.93;71.32
6094;BME280;19964;42.060;24.700;2023-04-19T07:44:39;97062.50;;;17.01;69.45
6094;BME280;19964;42.060;24.700;2023-04-19T07:47:06;97068.56;;;17.25;68.06
6094;BME280;19964;42.060;24.700;2023-04-19T07:49:33;97064.06;;;17.02;69.66
6094;BME280;19964;42.060;24.700;2023-04-19T07:52:00;97038.78;;;16.20;70.17
6094;BME280;19964;42.060;24.700;2023-04-19T07:54:27;97061.44;;;16.73;70.13
6094;BME280;19964;42.060;24.700;2023-04-19T07:56:54;97060.38;;;16.36;69.95
6094;BME280;19964;42.060;24.700;2023-04-19T07:59:24;97062.50;;;15.85;71.62
6094;BME280;19964;42.060;24.700;2023-04-19T08:01:52;97064.03;;;15.91;72.73
6094;BME280;19964;42.060;24.700;2023-04-19T08:04:19;97070.84;;;15.87;72.99
6094;BME280;19964;42.060;24.700;2023-04-19T08:06:47;97068.00;;;15.83;71.82
6094;BME280;19964;42.060;24.700;2023-04-19T08:09:14;97062.47;;;15.95;73.37
6094;BME280;19964;42.060;24.700;2023-04-19T08:11:41;97053.72;;;16.15;75.29
6094;BME280;19964;42.060;24.700;2023-04-19T08:14:08;97064.59;;;16.27;73.20
6094;BME280;19964;42.060;24.700;2023-04-19T08:16:36;97034.13;;;16.12;72.75
6094;BME280;19964;42.060;24.700;2023-04-19T08:19:03;97058.78;;;16.40;71.38
6094;BME280;19964;42.060;24.700;2023-04-19T08:21:30;97058.53;;;15.92;70.99
6094;BME280;19964;42.060;24.700;2023-04-19T08:23:57;97058.59;;;15.82;71.56
6094;BME280;19964;42.060;24.700;2023-04-19T08:26:24;97055.31;;;16.11;71.71
6094;BME280;19964;42.060;24.700;2023-04-19T08:28:51;97051.41;;;16.47;71.95
6094;BME280;19964;42.060;24.700;2023-04-19T08:31:18;97059.59;;;16.74;69.78
6094;BME280;19964;42.060;24.700;2023-04-19T08:33:47;97060.88;;;16.76;69.58
6094;BME280;19964;42.060;24.700;2023-04-19T08:36:14;97052.97;;;16.53;66.73
6094;BME280;19964;42.060;24.700;2023-04-19T08:38:42;97064.66;;;16.60;67.07
6094;BME280;19964;42.060;24.700;2023-04-19T08:41:10;97041.34;;;16.25;69.04
6094;BME280;19964;42.060;24.700;2023-04-19T08:43:38;97056.41;;;16.43;68.92
6094;BME280;19964;42.060;24.700;2023-04-19T08:46:10;97052.59;;;16.98;67.33
6094;BME280;19964;42.060;24.700;2023-04-19T08:48:37;97042.19;;;17.40;66.18
6094;BME280;19964;42.060;24.700;2023-04-19T08:51:11;97041.16;;;17.41;69.59
6094;BME280;19964;42.060;24.700;2023-04-19T08:53:43;97021.13;;;17.27;65.70
6094;BME280;19964;42.060;24.700;2023-04-19T08:56:10;97027.78;;;17.66;65.99
6094;BME280;19964;42.060;24.700;2023-04-19T08:58:37;97048.00;;;18.22;64.56
6094;BME280;19964;42.060;24.700;2023-04-19T09:01:06;97049.56;;;18.41;62.96
6094;BME280;19964;42.060;24.700;2023-04-19T09:03:34;97053.25;;;18.59;61.72
6094;BME280;19964;42.060;24.700;2023-04-19T09:06:01;97046.34;;;18.82;59.89
6094;BME280;19964;42.060;24.700;2023-04-19T09:08:30;97046.34;;;18.82;60.99
6094;BME280;19964;42.060;24.700;2023-04-19T09:10:59;97044.31;;;19.06;62.20
6094;BME280;19964;42.060;24.700;2023-04-19T09:13:27;97041.81;;;18.68;60.62
6094;BME280;19964;42.060;24.700;2023-04-19T09:15:55;97021.00;;;18.03;62.63
6094;BME280;19964;42.060;24.700;2023-04-19T09:18:24;97037.69;;;18.49;60.92
6094;BME280;19964;42.060;24.700;2023-04-19T09:20:53;97033.38;;;18.72;61.89
6094;BME280;19964;42.060;24.700;2023-04-19T09:23:23;97051.00;;;18.52;57.95
6094;BME280;19964;42.060;24.700;2023-04-19T09:25:53;97044.72;;;18.67;58.92
6094;BME280;19964;42.060;24.700;2023-04-19T09:28:22;96964.75;;;18.14;60.13
6094;BME280;19964;42.060;24.700;2023-04-19T09:30:50;97032.44;;;18.49;62.53
6094;BME280;19964;42.060;24.700;2023-04-19T09:33:33;97040.91;;;18.59;61.59
6094;BME280;19964;42.060;24.700;2023-04-19T09:36:00;97030.47;;;18.87;61.28
6094;BME280;19964;42.060;24.700;2023-04-19T09:38:27;97040.19;;;18.86;61.49
6094;BME280;19964;42.060;24.700;2023-04-19T09:41:06;97038.03;;;18.05;58.59
6094;BME280;19964;42.060;24.700;2023-04-19T09:43:34;97026.97;;;18.27;60.91
6094;BME280;19964;42.060;24.700;2023-04-19T09:46:02;97032.16;;;18.13;62.09
6094;BME280;19964;42.060;24.700;2023-04-19T09:48:29;97030.63;;;17.89;62.89
6094;BME280;19964;42.060;24.700;2023-04-19T09:50:57;97032.16;;;17.71;59.00
6094;BME280;19964;42.060;24.700;2023-04-19T09:53:25;97026.69;;;17.44;62.19
6094;BME280;19964;42.060;24.700;2023-04-19T09:55:52;97016.81;;;17.64;63.43
6094;BME280;19964;42.060;24.700;2023-04-19T09:58:21;97016.38;;;17.34;61.94
6094;BME280;19964;42.060;24.700;2023-04-19T10:00:48;97024.81;;;17.73;60.52
6094;BME280;19964;42.060;24.700;2023-04-19T10:03:17;97022.66;;;17.33;61.36
6094;BME280;19964;42.060;24.700;2023-04-19T10:05:44;97015.56;;;17.81;63.69
6094;BME280;19964;42.060;24.700;2023-04-19T10:08:12;97016.06;;;18.01;62.55
6094;BME280;19964;42.060;24.700;2023-04-19T10:10:40;97016.72;;;18.12;60.63
6094;BME280;19964;42.060;24.700;2023-04-19T10:13:10;97010.97;;;18.47;62.96
6094;BME280;19964;42.060;24.700;2023-04-19T10:15:40;97006.47;;;18.47;63.00
6094;BME280;19964;42.060;24.700;2023-04-19T10:18:09;97003.09;;;18.93;64.56
6094;BME280;19964;42.060;24.700;2023-04-19T10:20:40;97010.69;;;18.62;62.45
6094;BME280;19964;42.060;24.700;2023-04-19T10:23:11;96998.56;;;18.66;59.20
6094;BME280;19964;42.060;24.700;2023-04-19T10:25:38;96994.34;;;19.24;60.98
6094;BME280;19964;42.060;24.700;2023-04-19T10:28:05;96993.91;;;19.36;61.34
6094;BME280;19964;42.060;24.700;2023-04-19T10:30:32;97003.03;;;19.25;55.29
6094;BME280;19964;42.060;24.700;2023-04-19T10:33:01;96991.84;;;19.33;51.80
6094;BME280;19964;42.060;24.700;2023-04-19T10:35:33;96996.22;;;19.51;51.38
6094;BME280;19964;42.060;24.700;2023-04-19T10:38:06;96985.19;;;19.76;52.92
6094;BME280;19964;42.060;24.700;2023-04-19T10:40:55;96988.72;;;19.94;53.72
6094;BME280;19964;42.060;24.700;2023-04-19T10:43:27;96995.63;;;19.68;52.65
6094;BME280;19964;42.060;24.700;2023-04-19T10:45:56;96974.91;;;19.39;54.24
6094;BME280;19964;42.060;24.700;2023-04-19T10:48:33;96998.53;;;18.52;49.88
6094;BME280;19964;42.060;24.700;2023-04-19T10:51:04;96983.78;;;18.56;51.97
6094;BME280;19964;42.060;24.700;2023-04-19T10:53:45;96990.84;;;19.15;51.26
6094;BME280;19964;42.060;24.700;2023-04-19T10:56:13;96986.38;;;19.16;50.87
6094;BME280;19964;42.060;24.700;2023-04-19T10:59:11;96974.22;;;19.06;50.74
6094;BME280;19964;42.060;24.700;2023-04-19T11:01:41;96961.47;;;18.22;51.39
6094;BME280;19964;42.060;24.700;2023-04-19T11:04:10;96954.28;;;18.46;51.19
6094;BME280;19964;42.060;24.700;2023-04-19T11:06:55;96973.25;;;19.57;55.23
6094;BME280;19964;42.060;24.700;2023-04-19T11:09:27;96975.69;;;19.53;50.80
6094;BME280;19964;42.060;24.700;2023-04-19T11:11:57;96973.72;;;18.26;50.97
6094;BME280;19964;42.060;24.700;2023-04-19T11:14:25;96954.59;;;18.44;56.48
6094;BME280;19964;42.060;24.700;2023-04-19T11:16:52;96969.81;;;18.24;52.54
6094;BME280;19964;42.060;24.700;2023-04-19T11:19:22;96958.78;;;18.27;52.60
6094;BME280;19964;42.060;24.700;2023-04-19T11:21:49;96959.81;;;17.94;53.50
6094;BME280;19964;42.060;24.700;2023-04-19T11:24:16;96955.19;;;18.04;53.45
6094;BME280;19964;42.060;24.700;2023-04-19T11:26:45;96958.38;;;18.01;56.62
6094;BME280;19964;42.060;24.700;2023-04-19T11:29:13;96956.66;;;18.61;56.48
6094;BME280;19964;42.060;24.700;2023-04-19T11:31:43;96953.81;;;19.03;56.27
6094;BME280;19964;42.060;24.700;2023-04-19T11:34:11;96960.00;;;18.67;56.94
6094;BME280;19964;42.060;24.700;2023-04-19T11:36:49;96951.34;;;18.15;56.27
6094;BME280;19964;42.060;24.700;2023-04-19T11:39:16;96960.56;;;18.31;56.11
6094;BME280;19964;42.060;24.700;2023-04-19T11:41:44;96953.63;;;18.03;56.58
6094;BME280;19964;42.060;24.700;2023-04-19T11:44:13;96945.16;;;17.74;57.07
6094;BME280;19964;42.060;24.700;2023-04-19T11:46:40;96948.13;;;17.67;56.77
6094;BME280;19964;42.060;24.700;2023-04-19T11:49:07;96955.97;;;17.49;59.09
6094;BME280;19964;42.060;24.700;2023-04-19T11:51:34;96953.56;;;17.52;58.38
6094;BME280;19964;42.060;24.700;2023-04-19T11:54:11;96950.97;;;17.90;58.39
6094;BME280;19964;42.060;24.700;2023-04-19T11:57:00;96871.19;;;17.21;59.18
6094;BME280;19964;42.060;24.700;2023-04-19T11:59:32;96954.19;;;17.21;60.05
6094;BME280;19964;42.060;24.700;2023-04-19T12:02:07;96947.59;;;17.47;61.74
6094;BME280;19964;42.060;24.700;2023-04-19T12:04:35;96953.78;;;17.09;62.13
6094;BME280;19964;42.060;24.700;2023-04-19T12:07:03;96947.22;;;17.11;62.41
6094;BME280;19964;42.060;24.700;2023-04-19T12:09:33;96946.53;;;17.24;61.93
6094;BME280;19964;42.060;24.700;2023-04-19T12:12:01;96872.75;;;16.56;63.51
6094;BME280;19964;42.060;24.700;2023-04-19T12:14:29;96953.69;;;16.95;62.79
6094;BME280;19964;42.060;24.700;2023-04-19T12:17:09;96952.41;;;16.35;63.76
6094;BME280;19964;42.060;24.700;2023-04-19T12:19:42;96949.38;;;16.57;63.90
6094;BME280;19964;42.060;24.700;2023-04-19T12:22:12;96940.66;;;16.90;64.85
6094;BME280;19964;42.060;24.700;2023-04-19T12:24:42;96913.50;;;16.86;64.23
6094;BME280;19964;42.060;24.700;2023-04-19T12:27:10;96919.75;;;17.09;63.66
6094;BME280;19964;42.060;24.700;2023-04-19T12:29:37;96931.09;;;16.80;63.12
6094;BME280;19964;42.060;24.700;2023-04-19T12:32:05;96914.56;;;16.61;64.35
6094;BME280;19964;42.060;24.700;2023-04-19T12:34:32;96935.88;;;16.97;62.24
6094;BME280;19964;42.060;24.700;2023-04-19T12:36:59;96921.44;;;17.00;62.93
6094;BME280;19964;42.060;24.700;2023-04-19T12:39:28;96930.09;;;17.00;62.38
6094;BME280;19964;42.060;24.700;2023-04-19T12:41:56;96942.53;;;16.61;63.27
6094;BME280;19964;42.060;24.700;2023-04-19T12:44:23;96867.44;;;16.09;63.97
6094;BME280;19964;42.060;24.700;2023-04-19T12:46:50;96946.31;;;15.72;73.97
6094;BME280;19964;42.060;24.700;2023-04-19T12:49:21;96950.34;;;15.93;75.59
6094;BME280;19964;42.060;24.700;2023-04-19T12:51:48;96935.97;;;16.01;79.28
6094;BME280;19964;42.060;24.700;2023-04-19T12:54:15;96942.16;;;16.44;77.42
6094;BME280;19964;42.060;24.700;2023-04-19T12:56:42;96946.53;;;16.53;78.28
6094;BME280;19964;42.060;24.700;2023-04-19T12:59:10;96940.59;;;16.71;77.84
6094;BME280;19964;42.060;24.700;2023-04-19T13:01:37;96887.94;;;16.54;76.71